Terminal Aerodrome Forecast
Issued by NWS

Home | Current Version | Previous Version | Graphics & Text | Print | Product List | Glossary On
Versions: 1 2 3 4 5 6 7 8 9 10 11 12 13 14 15 16 17
000
FTUS43 KICT 251720
TAFCNU
TAF
KCNU 251720Z 2518/2618 28016G23KT P6SM BKN025
     FM252300 01014G20KT P6SM OVC015
     FM261000 06014KT P6SM OVC015=

USA.gov is the U.S. government's official web portal to all federal, state and local government web resources and services.